sensor_id;sensor_type;location;lat;lon;timestamp;P1;P2;P0
68116;PMS7003;54909;54.464;18.498;2023-11-22T00:00:51;19;16;11
68116;PMS7003;54909;54.464;18.498;2023-11-22T00:03:59;19;17;12
68116;PMS7003;54909;54.464;18.498;2023-11-22T00:07:01;16;14;10
68116;PMS7003;54909;54.464;18.498;2023-11-22T00:10:02;20;15;10
68116;PMS7003;54909;54.464;18.498;2023-11-22T00:13:10;19;17;12
68116;PMS7003;54909;54.464;18.498;2023-11-22T00:16:12;18;16;11
68116;PMS7003;54909;54.464;18.498;2023-11-22T00:19:13;21;20;16
68116;PMS7003;54909;54.464;18.498;2023-11-22T00:22:22;23;21;12
68116;PMS7003;54909;54.464;18.498;2023-11-22T00:25:23;29;26;17
68116;PMS7003;54909;54.464;18.498;2023-11-22T00:28:25;41;33;22
68116;PMS7003;54909;54.464;18.498;2023-11-22T00:31:33;39;33;23
68116;PMS7003;54909;54.464;18.498;2023-11-22T00:34:35;39;34;22
68116;PMS7003;54909;54.464;18.498;2023-11-22T00:37:37;45;35;23
68116;PMS7003;54909;54.464;18.498;2023-11-22T00:40:46;46;38;25
68116;PMS7003;54909;54.464;18.498;2023-11-22T00:43:47;56;42;27
68116;PMS7003;54909;54.464;18.498;2023-11-22T00:46:49;57;45;29
68116;PMS7003;54909;54.464;18.498;2023-11-22T00:49:59;60;45;28
68116;PMS7003;54909;54.464;18.498;2023-11-22T00:53:04;56;46;28
68116;PMS7003;54909;54.464;18.498;2023-11-22T00:56:06;55;45;30
68116;PMS7003;54909;54.464;18.498;2023-11-22T00:59:12;53;42;30
68116;PMS7003;54909;54.464;18.498;2023-11-22T01:02:14;58;45;27
68116;PMS7003;54909;54.464;18.498;2023-11-22T01:05:16;55;42;27
68116;PMS7003;54909;54.464;18.498;2023-11-22T01:08:25;56;42;27
68116;PMS7003;54909;54.464;18.498;2023-11-22T01:11:26;58;46;27
68116;PMS7003;54909;54.464;18.498;2023-11-22T01:14:27;53;44;27
68116;PMS7003;54909;54.464;18.498;2023-11-22T01:17:37;59;49;29
68116;PMS7003;54909;54.464;18.498;2023-11-22T01:20:39;54;41;28
68116;PMS7003;54909;54.464;18.498;2023-11-22T01:23:41;53;43;26
68116;PMS7003;54909;54.464;18.498;2023-11-22T01:26:48;56;45;26
68116;PMS7003;54909;54.464;18.498;2023-11-22T01:29:50;52;41;26
68116;PMS7003;54909;54.464;18.498;2023-11-22T01:32:54;48;40;28
68116;PMS7003;54909;54.464;18.498;2023-11-22T01:36:02;38;34;24
68116;PMS7003;54909;54.464;18.498;2023-11-22T01:39:03;33;30;20
68116;PMS7003;54909;54.464;18.498;2023-11-22T01:42:07;54;42;26
68116;PMS7003;54909;54.464;18.498;2023-11-22T01:45:14;52;43;27
68116;PMS7003;54909;54.464;18.498;2023-11-22T01:48:15;50;42;27
68116;PMS7003;54909;54.464;18.498;2023-11-22T01:51:18;40;34;22
68116;PMS7003;54909;54.464;18.498;2023-11-22T01:54:25;41;35;25
68116;PMS7003;54909;54.464;18.498;2023-11-22T01:57:27;35;33;24
68116;PMS7003;54909;54.464;18.498;2023-11-22T02:00:35;37;33;21
68116;PMS7003;54909;54.464;18.498;2023-11-22T02:03:42;39;35;24
68116;PMS7003;54909;54.464;18.498;2023-11-22T02:06:46;42;37;24
68116;PMS7003;54909;54.464;18.498;2023-11-22T02:09:47;34;30;19
68116;PMS7003;54909;54.464;18.498;2023-11-22T02:12:50;28;27;20
68116;PMS7003;54909;54.464;18.498;2023-11-22T02:15:51;39;32;20
68116;PMS7003;54909;54.464;18.498;2023-11-22T02:18:56;27;22;17
68116;PMS7003;54909;54.464;18.498;2023-11-22T02:22:01;26;24;14
68116;PMS7003;54909;54.464;18.498;2023-11-22T02:25:04;22;22;17
68116;PMS7003;54909;54.464;18.498;2023-11-22T02:28:06;25;21;14
68116;PMS7003;54909;54.464;18.498;2023-11-22T02:31:14;24;18;13
68116;PMS7003;54909;54.464;18.498;2023-11-22T02:34:15;26;22;14
68116;PMS7003;54909;54.464;18.498;2023-11-22T02:37:17;21;20;15
68116;PMS7003;54909;54.464;18.498;2023-11-22T02:40:26;24;23;16
68116;PMS7003;54909;54.464;18.498;2023-11-22T02:43:29;24;20;15
68116;PMS7003;54909;54.464;18.498;2023-11-22T02:46:31;20;19;13
68116;PMS7003;54909;54.464;18.498;2023-11-22T02:49:38;14;14;12
68116;PMS7003;54909;54.464;18.498;2023-11-22T02:52:40;20;15;11
68116;PMS7003;54909;54.464;18.498;2023-11-22T02:55:42;18;18;13
68116;PMS7003;54909;54.464;18.498;2023-11-22T02:58:49;16;15;12
68116;PMS7003;54909;54.464;18.498;2023-11-22T03:01:51;20;18;12
68116;PMS7003;54909;54.464;18.498;2023-11-22T03:04:52;17;16;12
68116;PMS7003;54909;54.464;18.498;2023-11-22T03:08:01;22;19;15
68116;PMS7003;54909;54.464;18.498;2023-11-22T03:11:02;22;19;12
68116;PMS7003;54909;54.464;18.498;2023-11-22T03:14:04;16;16;11
68116;PMS7003;54909;54.464;18.498;2023-11-22T03:17:12;25;21;13
68116;PMS7003;54909;54.464;18.498;2023-11-22T03:20:15;18;16;11
68116;PMS7003;54909;54.464;18.498;2023-11-22T03:23:17;22;19;12
68116;PMS7003;54909;54.464;18.498;2023-11-22T03:26:24;19;17;12
68116;PMS7003;54909;54.464;18.498;2023-11-22T03:29:25;20;17;13
68116;PMS7003;54909;54.464;18.498;2023-11-22T03:32:27;17;14;11
68116;PMS7003;54909;54.464;18.498;2023-11-22T03:35:37;24;22;12
68116;PMS7003;54909;54.464;18.498;2023-11-22T03:38:40;16;16;11
68116;PMS7003;54909;54.464;18.498;2023-11-22T03:41:42;19;16;11
68116;PMS7003;54909;54.464;18.498;2023-11-22T03:44:48;18;16;13
68116;PMS7003;54909;54.464;18.498;2023-11-22T03:47:49;19;16;11
68116;PMS7003;54909;54.464;18.498;2023-11-22T03:50:50;20;17;12
68116;PMS7003;54909;54.464;18.498;2023-11-22T03:53:59;18;17;10
68116;PMS7003;54909;54.464;18.498;2023-11-22T03:57:00;18;15;10
68116;PMS7003;54909;54.464;18.498;2023-11-22T04:00:03;18;16;11
68116;PMS7003;54909;54.464;18.498;2023-11-22T04:03:09;21;18;13
68116;PMS7003;54909;54.464;18.498;2023-11-22T04:06:10;20;17;12
68116;PMS7003;54909;54.464;18.498;2023-11-22T04:09:11;22;16;11
68116;PMS7003;54909;54.464;18.498;2023-11-22T04:12:19;16;13;10
68116;PMS7003;54909;54.464;18.498;2023-11-22T04:15:20;13;10;9
68116;PMS7003;54909;54.464;18.498;2023-11-22T04:18:21;15;12;9
68116;PMS7003;54909;54.464;18.498;2023-11-22T04:21:29;13;13;10
68116;PMS7003;54909;54.464;18.498;2023-11-22T04:24:31;17;14;10
68116;PMS7003;54909;54.464;18.498;2023-11-22T04:27:33;16;14;10
68116;PMS7003;54909;54.464;18.498;2023-11-22T04:30:40;15;11;10
68116;PMS7003;54909;54.464;18.498;2023-11-22T04:33:42;14;12;10
68116;PMS7003;54909;54.464;18.498;2023-11-22T04:36:43;15;13;10
68116;PMS7003;54909;54.464;18.498;2023-11-22T04:39:50;12;10;9
68116;PMS7003;54909;54.464;18.498;2023-11-22T04:42:53;10;10;8
68116;PMS7003;54909;54.464;18.498;2023-11-22T04:45:54;11;9;7
68116;PMS7003;54909;54.464;18.498;2023-11-22T04:49:01;12;10;8
68116;PMS7003;54909;54.464;18.498;2023-11-22T04:52:02;10;9;7
68116;PMS7003;54909;54.464;18.498;2023-11-22T04:55:04;13;13;6
68116;PMS7003;54909;54.464;18.498;2023-11-22T04:58:11;12;11;8
68116;PMS7003;54909;54.464;18.498;2023-11-22T05:01:12;10;10;8
68116;PMS7003;54909;54.464;18.498;2023-11-22T05:04:14;12;11;8
68116;PMS7003;54909;54.464;18.498;2023-11-22T05:07:21;11;10;8
68116;PMS7003;54909;54.464;18.498;2023-11-22T05:10:23;15;11;8
68116;PMS7003;54909;54.464;18.498;2023-11-22T05:13:24;12;11;9
68116;PMS7003;54909;54.464;18.498;2023-11-22T05:16:33;11;9;8
68116;PMS7003;54909;54.464;18.498;2023-11-22T05:19:34;14;13;9
68116;PMS7003;54909;54.464;18.498;2023-11-22T05:22:36;15;12;10
68116;PMS7003;54909;54.464;18.498;2023-11-22T05:25:42;15;11;9
68116;PMS7003;54909;54.464;18.498;2023-11-22T05:28:44;13;11;11
68116;PMS7003;54909;54.464;18.498;2023-11-22T05:31:47;19;17;10
68116;PMS7003;54909;54.464;18.498;2023-11-22T05:34:53;15;13;10
68116;PMS7003;54909;54.464;18.498;2023-11-22T05:37:54;16;15;10
68116;PMS7003;54909;54.464;18.498;2023-11-22T05:40:55;21;16;10
68116;PMS7003;54909;54.464;18.498;2023-11-22T05:44:03;20;17;11
68116;PMS7003;54909;54.464;18.498;2023-11-22T05:47:05;21;17;12
68116;PMS7003;54909;54.464;18.498;2023-11-22T05:50:08;18;14;11
68116;PMS7003;54909;54.464;18.498;2023-11-22T05:53:14;16;13;9
68116;PMS7003;54909;54.464;18.498;2023-11-22T05:56:19;15;13;10
68116;PMS7003;54909;54.464;18.498;2023-11-22T05:59:21;19;15;12
68116;PMS7003;54909;54.464;18.498;2023-11-22T06:02:24;14;13;9
68116;PMS7003;54909;54.464;18.498;2023-11-22T06:05:26;20;17;9
68116;PMS7003;54909;54.464;18.498;2023-11-22T06:08:27;17;14;10
68116;PMS7003;54909;54.464;18.498;2023-11-22T06:11:35;21;16;11
68116;PMS7003;54909;54.464;18.498;2023-11-22T06:14:36;23;20;13
68116;PMS7003;54909;54.464;18.498;2023-11-22T06:17:38;18;17;14
68116;PMS7003;54909;54.464;18.498;2023-11-22T06:20:48;23;20;14
68116;PMS7003;54909;54.464;18.498;2023-11-22T06:23:49;18;17;15
68116;PMS7003;54909;54.464;18.498;2023-11-22T06:26:51;23;17;13
68116;PMS7003;54909;54.464;18.498;2023-11-22T06:29:59;25;23;17
68116;PMS7003;54909;54.464;18.498;2023-11-22T06:33:01;24;20;14
68116;PMS7003;54909;54.464;18.498;2023-11-22T06:36:02;33;27;16
68116;PMS7003;54909;54.464;18.498;2023-11-22T06:39:13;28;23;13
68116;PMS7003;54909;54.464;18.498;2023-11-22T06:42:14;27;24;15
68116;PMS7003;54909;54.464;18.498;2023-11-22T06:45:17;29;25;16
68116;PMS7003;54909;54.464;18.498;2023-11-22T06:48:24;26;24;15
68116;PMS7003;54909;54.464;18.498;2023-11-22T06:51:25;24;21;15
68116;PMS7003;54909;54.464;18.498;2023-11-22T06:54:27;24;20;14
68116;PMS7003;54909;54.464;18.498;2023-11-22T06:57:36;30;24;17
68116;PMS7003;54909;54.464;18.498;2023-11-22T07:00:38;25;17;12
68116;PMS7003;54909;54.464;18.498;2023-11-22T07:03:41;15;15;11
68116;PMS7003;54909;54.464;18.498;2023-11-22T07:06:47;23;21;16
68116;PMS7003;54909;54.464;18.498;2023-11-22T07:09:49;19;18;11
68116;PMS7003;54909;54.464;18.498;2023-11-22T07:12:51;26;21;15
68116;PMS7003;54909;54.464;18.498;2023-11-22T07:15:58;29;22;13
68116;PMS7003;54909;54.464;18.498;2023-11-22T07:19:01;24;23;14
68116;PMS7003;54909;54.464;18.498;2023-11-22T07:22:04;14;14;10
68116;PMS7003;54909;54.464;18.498;2023-11-22T07:25:15;23;19;13
68116;PMS7003;54909;54.464;18.498;2023-11-22T07:28:19;24;24;16
68116;PMS7003;54909;54.464;18.498;2023-11-22T07:31:20;63;48;29
68116;PMS7003;54909;54.464;18.498;2023-11-22T07:34:23;33;29;19
68116;PMS7003;54909;54.464;18.498;2023-11-22T07:37:24;56;43;25
68116;PMS7003;54909;54.464;18.498;2023-11-22T07:40:26;40;34;24
68116;PMS7003;54909;54.464;18.498;2023-11-22T07:43:32;43;38;25
68116;PMS7003;54909;54.464;18.498;2023-11-22T07:46:33;42;35;23
68116;PMS7003;54909;54.464;18.498;2023-11-22T07:49:40;35;31;21
68116;PMS7003;54909;54.464;18.498;2023-11-22T07:52:45;27;25;16
68116;PMS7003;54909;54.464;18.498;2023-11-22T07:55:48;26;21;16
68116;PMS7003;54909;54.464;18.498;2023-11-22T07:58:52;36;31;19
68116;PMS7003;54909;54.464;18.498;2023-11-22T08:01:56;32;30;18
68116;PMS7003;54909;54.464;18.498;2023-11-22T08:04:58;31;22;16
68116;PMS7003;54909;54.464;18.498;2023-11-22T08:08:03;24;22;14
68116;PMS7003;54909;54.464;18.498;2023-11-22T08:11:09;20;16;11
68116;PMS7003;54909;54.464;18.498;2023-11-22T08:14:16;28;23;13
68116;PMS7003;54909;54.464;18.498;2023-11-22T08:17:18;20;20;15
68116;PMS7003;54909;54.464;18.498;2023-11-22T08:20:21;22;19;11
68116;PMS7003;54909;54.464;18.498;2023-11-22T08:23:23;18;15;10
68116;PMS7003;54909;54.464;18.498;2023-11-22T08:26:27;20;18;13
68116;PMS7003;54909;54.464;18.498;2023-11-22T08:29:32;27;24;14
68116;PMS7003;54909;54.464;18.498;2023-11-22T08:32:33;27;22;16
68116;PMS7003;54909;54.464;18.498;2023-11-22T08:35:34;28;26;17
68116;PMS7003;54909;54.464;18.498;2023-11-22T08:38:44;26;21;15
68116;PMS7003;54909;54.464;18.498;2023-11-22T08:41:45;28;24;15
68116;PMS7003;54909;54.464;18.498;2023-11-22T08:44:50;26;24;15
68116;PMS7003;54909;54.464;18.498;2023-11-22T08:47:55;36;24;17
68116;PMS7003;54909;54.464;18.498;2023-11-22T08:50:56;34;26;18
68116;PMS7003;54909;54.464;18.498;2023-11-22T08:53:59;31;26;19
68116;PMS7003;54909;54.464;18.498;2023-11-22T08:57:08;36;33;20
68116;PMS7003;54909;54.464;18.498;2023-11-22T09:00:10;29;26;19
68116;PMS7003;54909;54.464;18.498;2023-11-22T09:03:15;31;23;16
68116;PMS7003;54909;54.464;18.498;2023-11-22T09:06:19;35;29;18
68116;PMS7003;54909;54.464;18.498;2023-11-22T09:09:21;35;31;16
68116;PMS7003;54909;54.464;18.498;2023-11-22T09:12:31;33;29;18
68116;PMS7003;54909;54.464;18.498;2023-11-22T09:15:32;29;26;18
68116;PMS7003;54909;54.464;18.498;2023-11-22T09:18:36;41;30;19
68116;PMS7003;54909;54.464;18.498;2023-11-22T09:21:38;35;30;20
68116;PMS7003;54909;54.464;18.498;2023-11-22T09:24:43;36;31;21
68116;PMS7003;54909;54.464;18.498;2023-11-22T09:27:46;39;33;22
68116;PMS7003;54909;54.464;18.498;2023-11-22T09:30:51;38;34;22
68116;PMS7003;54909;54.464;18.498;2023-11-22T09:33:55;39;33;21
68116;PMS7003;54909;54.464;18.498;2023-11-22T09:36:57;46;38;23
68116;PMS7003;54909;54.464;18.498;2023-11-22T09:39:59;34;31;20
68116;PMS7003;54909;54.464;18.498;2023-11-22T09:43:07;30;28;17
68116;PMS7003;54909;54.464;18.498;2023-11-22T09:46:09;33;29;18
68116;PMS7003;54909;54.464;18.498;2023-11-22T09:49:13;25;21;14
68116;PMS7003;54909;54.464;18.498;2023-11-22T09:52:22;26;22;13
68116;PMS7003;54909;54.464;18.498;2023-11-22T09:55:29;23;21;15
68116;PMS7003;54909;54.464;18.498;2023-11-22T09:58:34;17;17;12
68116;PMS7003;54909;54.464;18.498;2023-11-22T10:01:37;21;18;12
68116;PMS7003;54909;54.464;18.498;2023-11-22T10:04:39;19;16;12
68116;PMS7003;54909;54.464;18.498;2023-11-22T10:07:41;12;8;7
68116;PMS7003;54909;54.464;18.498;2023-11-22T10:10:43;9;8;7
68116;PMS7003;54909;54.464;18.498;2023-11-22T10:13:48;14;13;8
68116;PMS7003;54909;54.464;18.498;2023-11-22T10:20:00;9;9;7
68116;PMS7003;54909;54.464;18.498;2023-11-22T10:23:02;12;9;8
68116;PMS7003;54909;54.464;18.498;2023-11-22T10:26:04;14;12;8
68116;PMS7003;54909;54.464;18.498;2023-11-22T10:29:08;26;22;13
68116;PMS7003;54909;54.464;18.498;2023-11-22T10:32:09;22;16;12
68116;PMS7003;54909;54.464;18.498;2023-11-22T10:35:11;17;15;9
68116;PMS7003;54909;54.464;18.498;2023-11-22T10:38:15;14;13;9
68116;PMS7003;54909;54.464;18.498;2023-11-22T10:41:21;9;8;6
68116;PMS7003;54909;54.464;18.498;2023-11-22T10:44:23;12;9;8
68116;PMS7003;54909;54.464;18.498;2023-11-22T10:47:25;11;9;7
68116;PMS7003;54909;54.464;18.498;2023-11-22T10:50:30;8;7;6
68116;PMS7003;54909;54.464;18.498;2023-11-22T10:53:33;10;9;7
68116;PMS7003;54909;54.464;18.498;2023-11-22T10:56:39;12;10;8
68116;PMS7003;54909;54.464;18.498;2023-11-22T10:59:44;11;8;7
68116;PMS7003;54909;54.464;18.498;2023-11-22T11:03:07;10;8;7
68116;PMS7003;54909;54.464;18.498;2023-11-22T11:06:02;12;9;7
68116;PMS7003;54909;54.464;18.498;2023-11-22T11:09:13;11;8;7
68116;PMS7003;54909;54.464;18.498;2023-11-22T11:12:21;8;8;6
68116;PMS7003;54909;54.464;18.498;2023-11-22T11:15:24;12;11;8
68116;PMS7003;54909;54.464;18.498;2023-11-22T11:18:27;15;12;8
68116;PMS7003;54909;54.464;18.498;2023-11-22T11:21:30;16;14;11
68116;PMS7003;54909;54.464;18.498;2023-11-22T11:24:40;15;14;11
68116;PMS7003;54909;54.464;18.498;2023-11-22T11:27:45;16;15;11
68116;PMS7003;54909;54.464;18.498;2023-11-22T11:31:00;22;20;16
68116;PMS7003;54909;54.464;18.498;2023-11-22T11:34:06;24;20;15
68116;PMS7003;54909;54.464;18.498;2023-11-22T11:37:08;23;19;14
68116;PMS7003;54909;54.464;18.498;2023-11-22T11:43:48;30;22;16
68116;PMS7003;54909;54.464;18.498;2023-11-22T11:46:40;21;18;14
68116;PMS7003;54909;54.464;18.498;2023-11-22T11:49:41;24;23;14
68116;PMS7003;54909;54.464;18.498;2023-11-22T11:52:43;24;23;17
68116;PMS7003;54909;54.464;18.498;2023-11-22T11:55:44;21;21;14
68116;PMS7003;54909;54.464;18.498;2023-11-22T11:58:50;22;19;13
68116;PMS7003;54909;54.464;18.498;2023-11-22T12:01:52;20;17;12
68116;PMS7003;54909;54.464;18.498;2023-11-22T12:04:57;21;19;14
68116;PMS7003;54909;54.464;18.498;2023-11-22T12:07:59;25;21;16
68116;PMS7003;54909;54.464;18.498;2023-11-22T12:11:00;26;25;14
68116;PMS7003;54909;54.464;18.498;2023-11-22T12:14:04;26;22;17
68116;PMS7003;54909;54.464;18.498;2023-11-22T12:17:09;34;30;18
68116;PMS7003;54909;54.464;18.498;2023-11-22T12:20:14;31;27;18
68116;PMS7003;54909;54.464;18.498;2023-11-22T12:23:21;27;23;18
68116;PMS7003;54909;54.464;18.498;2023-11-22T12:26:23;26;23;16
68116;PMS7003;54909;54.464;18.498;2023-11-22T12:29:24;26;24;18
68116;PMS7003;54909;54.464;18.498;2023-11-22T12:32:26;27;25;17
68116;PMS7003;54909;54.464;18.498;2023-11-22T12:35:33;29;26;19
68116;PMS7003;54909;54.464;18.498;2023-11-22T12:38:35;25;24;18
68116;PMS7003;54909;54.464;18.498;2023-11-22T12:41:41;27;25;18
68116;PMS7003;54909;54.464;18.498;2023-11-22T12:47:53;24;22;15
68116;PMS7003;54909;54.464;18.498;2023-11-22T12:50:56;27;23;17
68116;PMS7003;54909;54.464;18.498;2023-11-22T12:53:58;20;19;13
68116;PMS7003;54909;54.464;18.498;2023-11-22T12:56:59;23;20;17
68116;PMS7003;54909;54.464;18.498;2023-11-22T13:00:03;19;18;13
68116;PMS7003;54909;54.464;18.498;2023-11-22T13:03:06;19;18;12
68116;PMS7003;54909;54.464;18.498;2023-11-22T13:06:11;27;26;17
68116;PMS7003;54909;54.464;18.498;2023-11-22T13:09:12;27;27;17
68116;PMS7003;54909;54.464;18.498;2023-11-22T13:12:17;31;27;19
68116;PMS7003;54909;54.464;18.498;2023-11-22T13:15:20;34;30;18
68116;PMS7003;54909;54.464;18.498;2023-11-22T13:18:26;26;24;17
68116;PMS7003;54909;54.464;18.498;2023-11-22T13:21:28;28;24;18
68116;PMS7003;54909;54.464;18.498;2023-11-22T13:24:29;33;31;20
68116;PMS7003;54909;54.464;18.498;2023-11-22T13:27:31;30;28;21
68116;PMS7003;54909;54.464;18.498;2023-11-22T13:30:41;39;33;20
68116;PMS7003;54909;54.464;18.498;2023-11-22T13:33:42;38;33;22
68116;PMS7003;54909;54.464;18.498;2023-11-22T13:36:47;31;28;19
68116;PMS7003;54909;54.464;18.498;2023-11-22T13:39:54;33;25;19
68116;PMS7003;54909;54.464;18.498;2023-11-22T13:42:55;37;33;23
68116;PMS7003;54909;54.464;18.498;2023-11-22T13:45:57;36;32;24
68116;PMS7003;54909;54.464;18.498;2023-11-22T13:49:05;34;31;23
68116;PMS7003;54909;54.464;18.498;2023-11-22T13:52:07;36;32;21
68116;PMS7003;54909;54.464;18.498;2023-11-22T13:55:08;35;33;22
68116;PMS7003;54909;54.464;18.498;2023-11-22T13:58:18;34;32;20
68116;PMS7003;54909;54.464;18.498;2023-11-22T14:01:19;36;33;22
68116;PMS7003;54909;54.464;18.498;2023-11-22T14:04:21;39;34;23
68116;PMS7003;54909;54.464;18.498;2023-11-22T14:07:29;47;35;24
68116;PMS7003;54909;54.464;18.498;2023-11-22T14:10:31;50;41;24
68116;PMS7003;54909;54.464;18.498;2023-11-22T14:13:33;50;41;25
68116;PMS7003;54909;54.464;18.498;2023-11-22T14:16:42;47;39;25
68116;PMS7003;54909;54.464;18.498;2023-11-22T14:19:46;43;34;22
68116;PMS7003;54909;54.464;18.498;2023-11-22T14:22:48;47;37;24
68116;PMS7003;54909;54.464;18.498;2023-11-22T14:25:55;42;35;24
68116;PMS7003;54909;54.464;18.498;2023-11-22T14:28:56;41;35;24
68116;PMS7003;54909;54.464;18.498;2023-11-22T14:31:57;50;42;26
68116;PMS7003;54909;54.464;18.498;2023-11-22T14:34:59;46;36;24
68116;PMS7003;54909;54.464;18.498;2023-11-22T14:38:02;47;37;23
68116;PMS7003;54909;54.464;18.498;2023-11-22T14:41:06;42;34;22
68116;PMS7003;54909;54.464;18.498;2023-11-22T14:44:10;36;31;22
68116;PMS7003;54909;54.464;18.498;2023-11-22T14:47:11;40;33;22
68116;PMS7003;54909;54.464;18.498;2023-11-22T14:50:25;35;32;21
68116;PMS7003;54909;54.464;18.498;2023-11-22T14:53:35;36;34;23
68116;PMS7003;54909;54.464;18.498;2023-11-22T14:56:38;36;32;21
68116;PMS7003;54909;54.464;18.498;2023-11-22T14:59:41;34;32;21
68116;PMS7003;54909;54.464;18.498;2023-11-22T15:02:47;34;29;19
68116;PMS7003;54909;54.464;18.498;2023-11-22T15:05:56;26;26;20
68116;PMS7003;54909;54.464;18.498;2023-11-22T15:08:58;36;32;19
68116;PMS7003;54909;54.464;18.498;2023-11-22T15:12:00;46;36;23
68116;PMS7003;54909;54.464;18.498;2023-11-22T15:15:05;36;33;22
68116;PMS7003;54909;54.464;18.498;2023-11-22T15:18:07;45;38;24
68116;PMS7003;54909;54.464;18.498;2023-11-22T15:21:13;44;36;24
68116;PMS7003;54909;54.464;18.498;2023-11-22T15:24:14;50;39;24
68116;PMS7003;54909;54.464;18.498;2023-11-22T15:27:15;51;41;25
68116;PMS7003;54909;54.464;18.498;2023-11-22T15:30:26;48;37;24
68116;PMS7003;54909;54.464;18.498;2023-11-22T15:33:27;42;34;22
68116;PMS7003;54909;54.464;18.498;2023-11-22T15:36:29;42;36;25
68116;PMS7003;54909;54.464;18.498;2023-11-22T15:39:38;44;38;25
68116;PMS7003;54909;54.464;18.498;2023-11-22T15:42:40;47;38;24
68116;PMS7003;54909;54.464;18.498;2023-11-22T15:45:41;43;36;24
68116;PMS7003;54909;54.464;18.498;2023-11-22T15:48:43;41;34;25
68116;PMS7003;54909;54.464;18.498;2023-11-22T15:51:45;46;39;24
68116;PMS7003;54909;54.464;18.498;2023-11-22T15:54:46;43;36;25
68116;PMS7003;54909;54.464;18.498;2023-11-22T15:57:48;43;36;24
68116;PMS7003;54909;54.464;18.498;2023-11-22T16:00:49;53;41;26
68116;PMS7003;54909;54.464;18.498;2023-11-22T16:03:53;48;39;25
68116;PMS7003;54909;54.464;18.498;2023-11-22T16:06:55;37;33;22
68116;PMS7003;54909;54.464;18.498;2023-11-22T16:09:56;46;38;25
68116;PMS7003;54909;54.464;18.498;2023-11-22T16:13:05;39;33;22
68116;PMS7003;54909;54.464;18.498;2023-11-22T16:16:07;43;37;24
68116;PMS7003;54909;54.464;18.498;2023-11-22T16:19:09;42;36;24
68116;PMS7003;54909;54.464;18.498;2023-11-22T16:22:16;46;37;24
68116;PMS7003;54909;54.464;18.498;2023-11-22T16:25:18;39;33;20
68116;PMS7003;54909;54.464;18.498;2023-11-22T16:28:25;45;35;22
68116;PMS7003;54909;54.464;18.498;2023-11-22T16:31:27;44;36;23
68116;PMS7003;54909;54.464;18.498;2023-11-22T16:34:28;34;30;20
68116;PMS7003;54909;54.464;18.498;2023-11-22T16:37:30;31;28;21
68116;PMS7003;54909;54.464;18.498;2023-11-22T16:40:40;38;33;21
68116;PMS7003;54909;54.464;18.498;2023-11-22T16:43:42;33;28;20
68116;PMS7003;54909;54.464;18.498;2023-11-22T16:46:46;40;32;22
68116;PMS7003;54909;54.464;18.498;2023-11-22T16:49:53;41;36;23
68116;PMS7003;54909;54.464;18.498;2023-11-22T16:52:54;31;25;18
68116;PMS7003;54909;54.464;18.498;2023-11-22T16:55:56;26;23;14
68116;PMS7003;54909;54.464;18.498;2023-11-22T16:59:05;23;21;19
68116;PMS7003;54909;54.464;18.498;2023-11-22T17:02:09;26;25;18
68116;PMS7003;54909;54.464;18.498;2023-11-22T17:05:12;28;24;17
68116;PMS7003;54909;54.464;18.498;2023-11-22T17:08:18;39;34;21
68116;PMS7003;54909;54.464;18.498;2023-11-22T17:11:20;35;30;19
68116;PMS7003;54909;54.464;18.498;2023-11-22T17:14:21;30;27;21
68116;PMS7003;54909;54.464;18.498;2023-11-22T17:17:29;21;21;14
68116;PMS7003;54909;54.464;18.498;2023-11-22T17:20:31;23;19;12
68116;PMS7003;54909;54.464;18.498;2023-11-22T17:23:32;25;23;18
68116;PMS7003;54909;54.464;18.498;2023-11-22T17:26:41;27;24;17
68116;PMS7003;54909;54.464;18.498;2023-11-22T17:29:42;27;23;15
68116;PMS7003;54909;54.464;18.498;2023-11-22T17:32:43;24;23;18
68116;PMS7003;54909;54.464;18.498;2023-11-22T17:35:53;25;21;14
68116;PMS7003;54909;54.464;18.498;2023-11-22T17:38:54;26;24;15
68116;PMS7003;54909;54.464;18.498;2023-11-22T17:41:57;23;21;14
68116;PMS7003;54909;54.464;18.498;2023-11-22T17:45:03;20;19;12
68116;PMS7003;54909;54.464;18.498;2023-11-22T17:48:05;23;21;12
68116;PMS7003;54909;54.464;18.498;2023-11-22T17:51:08;19;13;11
68116;PMS7003;54909;54.464;18.498;2023-11-22T17:54:14;27;20;15
68116;PMS7003;54909;54.464;18.498;2023-11-22T17:57:15;23;22;16
68116;PMS7003;54909;54.464;18.498;2023-11-22T18:00:19;16;13;9
68116;PMS7003;54909;54.464;18.498;2023-11-22T18:03:25;21;19;13
68116;PMS7003;54909;54.464;18.498;2023-11-22T18:09:03;20;19;13
68116;PMS7003;54909;54.464;18.498;2023-11-22T18:12:05;23;22;13
68116;PMS7003;54909;54.464;18.498;2023-11-22T18:15:15;22;18;13
68116;PMS7003;54909;54.464;18.498;2023-11-22T18:18:17;19;17;12
68116;PMS7003;54909;54.464;18.498;2023-11-22T18:21:18;21;18;13
68116;PMS7003;54909;54.464;18.498;2023-11-22T18:24:27;30;26;17
68116;PMS7003;54909;54.464;18.498;2023-11-22T18:27:30;23;22;14
68116;PMS7003;54909;54.464;18.498;2023-11-22T18:30:32;23;16;13
68116;PMS7003;54909;54.464;18.498;2023-11-22T18:33:39;15;15;10
68116;PMS7003;54909;54.464;18.498;2023-11-22T18:36:40;26;22;15
68116;PMS7003;54909;54.464;18.498;2023-11-22T18:39:41;23;19;14
68116;PMS7003;54909;54.464;18.498;2023-11-22T18:42:52;25;21;14
68116;PMS7003;54909;54.464;18.498;2023-11-22T18:45:53;27;23;13
68116;PMS7003;54909;54.464;18.498;2023-11-22T18:48:54;14;14;11
68116;PMS7003;54909;54.464;18.498;2023-11-22T18:52:02;23;22;15
68116;PMS7003;54909;54.464;18.498;2023-11-22T18:55:05;28;22;13
68116;PMS7003;54909;54.464;18.498;2023-11-22T18:58:09;29;25;16
68116;PMS7003;54909;54.464;18.498;2023-11-22T19:01:12;16;15;11
68116;PMS7003;54909;54.464;18.498;2023-11-22T19:04:14;20;19;13
68116;PMS7003;54909;54.464;18.498;2023-11-22T19:07:15;29;27;18
68116;PMS7003;54909;54.464;18.498;2023-11-22T19:10:24;19;16;12
68116;PMS7003;54909;54.464;18.498;2023-11-22T19:13:26;15;13;11
68116;PMS7003;54909;54.464;18.498;2023-11-22T19:16:28;17;16;12
68116;PMS7003;54909;54.464;18.498;2023-11-22T19:19:35;17;13;10
68116;PMS7003;54909;54.464;18.498;2023-11-22T19:22:36;21;20;12
68116;PMS7003;54909;54.464;18.498;2023-11-22T19:25:40;13;10;8
68116;PMS7003;54909;54.464;18.498;2023-11-22T19:28:45;21;18;13
68116;PMS7003;54909;54.464;18.498;2023-11-22T19:31:47;27;25;13
68116;PMS7003;54909;54.464;18.498;2023-11-22T19:34:48;10;9;6
68116;PMS7003;54909;54.464;18.498;2023-11-22T19:37:57;12;10;8